sensor_id;sensor_type;location;lat;lon;timestamp;P1;durP1;ratioP1;P2;durP2;ratioP2
10246;SDS011;5168;47.854;7.944;2022-12-07T00:01:32;5.67;;;5.17;;
10246;SDS011;5168;47.854;7.944;2022-12-07T00:04:00;5.30;;;4.70;;
10246;SDS011;5168;47.854;7.944;2022-12-07T00:06:40;6.53;;;5.10;;
10246;SDS011;5168;47.854;7.944;2022-12-07T00:09:07;5.00;;;4.50;;
10246;SDS011;5168;47.854;7.944;2022-12-07T00:11:36;5.23;;;4.73;;
10246;SDS011;5168;47.854;7.944;2022-12-07T00:14:03;4.47;;;4.07;;
10246;SDS011;5168;47.854;7.944;2022-12-07T00:16:32;5.03;;;4.60;;
10246;SDS011;5168;47.854;7.944;2022-12-07T00:18:58;5.10;;;4.43;;
10246;SDS011;5168;47.854;7.944;2022-12-07T00:21:26;5.90;;;4.97;;
10246;SDS011;5168;47.854;7.944;2022-12-07T00:23:56;4.90;;;4.00;;
10246;SDS011;5168;47.854;7.944;2022-12-07T00:26:23;4.57;;;4.17;;
10246;SDS011;5168;47.854;7.944;2022-12-07T00:28:51;4.57;;;4.17;;
10246;SDS011;5168;47.854;7.944;2022-12-07T00:31:19;3.93;;;3.63;;
10246;SDS011;5168;47.854;7.944;2022-12-07T00:33:46;3.07;;;2.87;;
10246;SDS011;5168;47.854;7.944;2022-12-07T00:36:13;3.07;;;2.77;;
10246;SDS011;5168;47.854;7.944;2022-12-07T00:38:40;2.73;;;2.53;;
10246;SDS011;5168;47.854;7.944;2022-12-07T00:41:07;2.63;;;2.43;;
10246;SDS011;5168;47.854;7.944;2022-12-07T00:43:42;2.83;;;2.63;;
10246;SDS011;5168;47.854;7.944;2022-12-07T00:46:09;2.70;;;2.50;;
10246;SDS011;5168;47.854;7.944;2022-12-07T00:48:35;2.83;;;2.53;;
10246;SDS011;5168;47.854;7.944;2022-12-07T00:51:01;2.30;;;2.10;;
10246;SDS011;5168;47.854;7.944;2022-12-07T00:53:28;2.83;;;2.60;;
10246;SDS011;5168;47.854;7.944;2022-12-07T00:55:54;2.67;;;2.47;;
10246;SDS011;5168;47.854;7.944;2022-12-07T00:58:21;2.53;;;2.30;;
10246;SDS011;5168;47.854;7.944;2022-12-07T01:00:47;2.70;;;2.50;;
10246;SDS011;5168;47.854;7.944;2022-12-07T01:03:13;2.60;;;2.40;;
10246;SDS011;5168;47.854;7.944;2022-12-07T01:05:40;2.60;;;2.40;;
10246;SDS011;5168;47.854;7.944;2022-12-07T01:08:06;2.80;;;2.60;;
10246;SDS011;5168;47.854;7.944;2022-12-07T01:10:32;2.60;;;2.40;;
10246;SDS011;5168;47.854;7.944;2022-12-07T01:12:58;2.60;;;2.40;;
10246;SDS011;5168;47.854;7.944;2022-12-07T01:15:25;2.30;;;2.10;;
10246;SDS011;5168;47.854;7.944;2022-12-07T01:17:51;2.80;;;2.60;;
10246;SDS011;5168;47.854;7.944;2022-12-07T01:20:17;2.47;;;2.30;;
10246;SDS011;5168;47.854;7.944;2022-12-07T01:22:43;2.20;;;2.10;;
10246;SDS011;5168;47.854;7.944;2022-12-07T01:25:09;2.40;;;2.20;;
10246;SDS011;5168;47.854;7.944;2022-12-07T01:27:36;2.40;;;2.20;;
10246;SDS011;5168;47.854;7.944;2022-12-07T01:30:04;2.43;;;2.10;;
10246;SDS011;5168;47.854;7.944;2022-12-07T01:32:31;2.43;;;2.23;;
10246;SDS011;5168;47.854;7.944;2022-12-07T01:34:57;2.70;;;2.50;;
10246;SDS011;5168;47.854;7.944;2022-12-07T01:37:22;2.40;;;2.20;;
10246;SDS011;5168;47.854;7.944;2022-12-07T01:39:48;2.50;;;2.30;;
10246;SDS011;5168;47.854;7.944;2022-12-07T01:42:15;2.50;;;2.30;;
10246;SDS011;5168;47.854;7.944;2022-12-07T01:47:45;2.47;;;2.27;;
10246;SDS011;5168;47.854;7.944;2022-12-07T01:50:17;2.60;;;2.40;;
10246;SDS011;5168;47.854;7.944;2022-12-07T01:52:43;2.30;;;2.10;;
10246;SDS011;5168;47.854;7.944;2022-12-07T01:55:12;2.37;;;2.17;;
10246;SDS011;5168;47.854;7.944;2022-12-07T01:57:41;2.13;;;2.03;;
10246;SDS011;5168;47.854;7.944;2022-12-07T02:00:18;2.10;;;2.00;;
10246;SDS011;5168;47.854;7.944;2022-12-07T02:02:52;2.10;;;2.00;;
10246;SDS011;5168;47.854;7.944;2022-12-07T02:05:26;2.10;;;2.00;;
10246;SDS011;5168;47.854;7.944;2022-12-07T02:07:53;2.40;;;2.20;;
10246;SDS011;5168;47.854;7.944;2022-12-07T02:10:22;2.40;;;2.30;;
10246;SDS011;5168;47.854;7.944;2022-12-07T02:12:58;2.73;;;2.53;;
10246;SDS011;5168;47.854;7.944;2022-12-07T02:15:26;2.27;;;2.17;;
10246;SDS011;5168;47.854;7.944;2022-12-07T02:18:07;2.60;;;2.40;;
10246;SDS011;5168;47.854;7.944;2022-12-07T02:23:21;2.67;;;2.37;;
10246;SDS011;5168;47.854;7.944;2022-12-07T02:31:12;2.43;;;2.23;;
10246;SDS011;5168;47.854;7.944;2022-12-07T02:33:44;2.57;;;2.37;;
10246;SDS011;5168;47.854;7.944;2022-12-07T02:36:20;2.57;;;2.37;;
10246;SDS011;5168;47.854;7.944;2022-12-07T02:38:54;2.27;;;2.07;;
10246;SDS011;5168;47.854;7.944;2022-12-07T02:41:52;2.70;;;2.50;;
10246;SDS011;5168;47.854;7.944;2022-12-07T02:44:23;2.47;;;2.27;;
10246;SDS011;5168;47.854;7.944;2022-12-07T02:46:59;2.00;;;1.90;;
10246;SDS011;5168;47.854;7.944;2022-12-07T02:49:27;2.50;;;2.30;;
10246;SDS011;5168;47.854;7.944;2022-12-07T02:51:54;2.20;;;2.10;;
10246;SDS011;5168;47.854;7.944;2022-12-07T02:54:21;2.50;;;2.30;;
10246;SDS011;5168;47.854;7.944;2022-12-07T02:56:48;3.30;;;2.47;;
10246;SDS011;5168;47.854;7.944;2022-12-07T03:10:03;2.43;;;2.23;;
10246;SDS011;5168;47.854;7.944;2022-12-07T03:15:29;2.20;;;2.10;;
10246;SDS011;5168;47.854;7.944;2022-12-07T03:17:59;2.30;;;2.10;;
10246;SDS011;5168;47.854;7.944;2022-12-07T03:20:27;2.90;;;2.60;;
10246;SDS011;5168;47.854;7.944;2022-12-07T03:22:56;3.37;;;2.90;;
10246;SDS011;5168;47.854;7.944;2022-12-07T03:25:22;2.87;;;2.67;;
10246;SDS011;5168;47.854;7.944;2022-12-07T03:30:19;3.27;;;2.87;;
10246;SDS011;5168;47.854;7.944;2022-12-07T03:32:50;3.27;;;2.97;;
10246;SDS011;5168;47.854;7.944;2022-12-07T03:42:47;2.53;;;2.33;;
10246;SDS011;5168;47.854;7.944;2022-12-07T03:45:15;2.30;;;2.10;;
10246;SDS011;5168;47.854;7.944;2022-12-07T03:50:09;2.97;;;2.77;;
10246;SDS011;5168;47.854;7.944;2022-12-07T03:52:44;2.93;;;2.70;;
10246;SDS011;5168;47.854;7.944;2022-12-07T03:55:28;2.83;;;2.63;;
10246;SDS011;5168;47.854;7.944;2022-12-07T03:58:03;2.83;;;2.63;;
10246;SDS011;5168;47.854;7.944;2022-12-07T04:00:31;2.53;;;2.33;;
10246;SDS011;5168;47.854;7.944;2022-12-07T04:02:57;3.07;;;2.77;;
10246;SDS011;5168;47.854;7.944;2022-12-07T04:05:23;2.93;;;2.73;;
10246;SDS011;5168;47.854;7.944;2022-12-07T04:07:49;3.27;;;2.60;;
10246;SDS011;5168;47.854;7.944;2022-12-07T04:10:15;2.70;;;2.50;;
10246;SDS011;5168;47.854;7.944;2022-12-07T04:12:41;2.80;;;2.60;;
10246;SDS011;5168;47.854;7.944;2022-12-07T04:15:07;2.60;;;2.40;;
10246;SDS011;5168;47.854;7.944;2022-12-07T04:17:33;2.57;;;2.43;;
10246;SDS011;5168;47.854;7.944;2022-12-07T04:19:59;3.03;;;2.40;;
10246;SDS011;5168;47.854;7.944;2022-12-07T04:22:25;2.13;;;2.03;;
10246;SDS011;5168;47.854;7.944;2022-12-07T04:24:51;2.50;;;2.30;;
10246;SDS011;5168;47.854;7.944;2022-12-07T04:27:17;2.40;;;2.20;;
10246;SDS011;5168;47.854;7.944;2022-12-07T04:29:42;2.43;;;2.23;;
10246;SDS011;5168;47.854;7.944;2022-12-07T04:32:08;1.87;;;1.77;;
10246;SDS011;5168;47.854;7.944;2022-12-07T04:34:34;2.20;;;2.10;;
10246;SDS011;5168;47.854;7.944;2022-12-07T04:37:00;2.00;;;1.90;;
10246;SDS011;5168;47.854;7.944;2022-12-07T04:39:27;2.00;;;1.90;;
10246;SDS011;5168;47.854;7.944;2022-12-07T04:41:55;2.13;;;2.00;;
10246;SDS011;5168;47.854;7.944;2022-12-07T04:44:21;1.90;;;1.80;;
10246;SDS011;5168;47.854;7.944;2022-12-07T04:46:47;2.03;;;1.93;;
10246;SDS011;5168;47.854;7.944;2022-12-07T04:49:14;2.30;;;2.10;;
10246;SDS011;5168;47.854;7.944;2022-12-07T04:51:40;3.50;;;3.20;;
10246;SDS011;5168;47.854;7.944;2022-12-07T04:54:06;3.57;;;3.27;;
10246;SDS011;5168;47.854;7.944;2022-12-07T04:56:32;3.87;;;3.47;;
10246;SDS011;5168;47.854;7.944;2022-12-07T04:59:00;4.10;;;3.40;;
10246;SDS011;5168;47.854;7.944;2022-12-07T05:01:26;3.67;;;3.37;;
10246;SDS011;5168;47.854;7.944;2022-12-07T05:03:51;3.67;;;3.30;;
10246;SDS011;5168;47.854;7.944;2022-12-07T05:06:17;3.67;;;3.37;;
10246;SDS011;5168;47.854;7.944;2022-12-07T05:08:43;3.97;;;3.57;;
10246;SDS011;5168;47.854;7.944;2022-12-07T05:11:09;3.97;;;3.50;;
10246;SDS011;5168;47.854;7.944;2022-12-07T05:13:55;4.00;;;3.53;;
10246;SDS011;5168;47.854;7.944;2022-12-07T05:16:22;4.97;;;3.80;;
10246;SDS011;5168;47.854;7.944;2022-12-07T05:18:48;3.77;;;3.23;;
10246;SDS011;5168;47.854;7.944;2022-12-07T05:21:14;3.33;;;3.03;;
10246;SDS011;5168;47.854;7.944;2022-12-07T05:23:40;3.20;;;2.90;;
10246;SDS011;5168;47.854;7.944;2022-12-07T05:26:06;3.53;;;3.23;;
10246;SDS011;5168;47.854;7.944;2022-12-07T05:28:32;3.57;;;3.27;;
10246;SDS011;5168;47.854;7.944;2022-12-07T05:30:57;3.63;;;3.07;;
10246;SDS011;5168;47.854;7.944;2022-12-07T05:33:23;3.60;;;3.30;;
10246;SDS011;5168;47.854;7.944;2022-12-07T05:35:49;3.53;;;3.23;;
10246;SDS011;5168;47.854;7.944;2022-12-07T05:38:15;3.70;;;3.40;;
10246;SDS011;5168;47.854;7.944;2022-12-07T05:40:41;2.87;;;2.57;;
10246;SDS011;5168;47.854;7.944;2022-12-07T05:43:07;3.73;;;3.43;;
10246;SDS011;5168;47.854;7.944;2022-12-07T05:45:32;3.70;;;3.20;;
10246;SDS011;5168;47.854;7.944;2022-12-07T05:47:58;4.27;;;3.53;;
10246;SDS011;5168;47.854;7.944;2022-12-07T05:50:24;4.87;;;3.53;;
10246;SDS011;5168;47.854;7.944;2022-12-07T05:52:50;3.87;;;3.40;;
10246;SDS011;5168;47.854;7.944;2022-12-07T05:55:16;4.03;;;3.00;;
10246;SDS011;5168;47.854;7.944;2022-12-07T05:57:42;5.03;;;3.80;;
10246;SDS011;5168;47.854;7.944;2022-12-07T06:00:28;5.27;;;3.53;;
10246;SDS011;5168;47.854;7.944;2022-12-07T06:02:54;4.17;;;3.60;;
10246;SDS011;5168;47.854;7.944;2022-12-07T06:05:19;3.60;;;3.17;;
10246;SDS011;5168;47.854;7.944;2022-12-07T06:07:45;4.00;;;3.60;;
10246;SDS011;5168;47.854;7.944;2022-12-07T06:10:11;3.40;;;2.90;;
10246;SDS011;5168;47.854;7.944;2022-12-07T06:12:37;3.93;;;3.53;;
10246;SDS011;5168;47.854;7.944;2022-12-07T06:15:04;3.90;;;3.13;;
10246;SDS011;5168;47.854;7.944;2022-12-07T06:17:31;3.53;;;3.23;;
10246;SDS011;5168;47.854;7.944;2022-12-07T06:19:57;3.33;;;3.03;;
10246;SDS011;5168;47.854;7.944;2022-12-07T06:22:23;3.20;;;2.90;;
10246;SDS011;5168;47.854;7.944;2022-12-07T06:24:49;3.37;;;3.07;;
10246;SDS011;5168;47.854;7.944;2022-12-07T06:27:15;3.10;;;2.90;;
10246;SDS011;5168;47.854;7.944;2022-12-07T06:29:41;3.00;;;2.80;;
10246;SDS011;5168;47.854;7.944;2022-12-07T06:32:07;3.33;;;3.03;;
10246;SDS011;5168;47.854;7.944;2022-12-07T06:34:33;3.43;;;3.13;;
10246;SDS011;5168;47.854;7.944;2022-12-07T06:36:59;2.97;;;2.67;;
10246;SDS011;5168;47.854;7.944;2022-12-07T06:39:26;3.50;;;3.10;;
10246;SDS011;5168;47.854;7.944;2022-12-07T06:41:52;3.40;;;3.10;;
10246;SDS011;5168;47.854;7.944;2022-12-07T06:44:19;3.20;;;2.90;;
10246;SDS011;5168;47.854;7.944;2022-12-07T06:46:45;3.20;;;2.90;;
10246;SDS011;5168;47.854;7.944;2022-12-07T06:49:11;3.57;;;2.90;;
10246;SDS011;5168;47.854;7.944;2022-12-07T06:51:37;5.80;;;3.20;;
10246;SDS011;5168;47.854;7.944;2022-12-07T06:54:06;3.53;;;3.23;;
10246;SDS011;5168;47.854;7.944;2022-12-07T06:56:32;3.70;;;3.40;;
10246;SDS011;5168;47.854;7.944;2022-12-07T06:58:58;2.70;;;2.50;;
10246;SDS011;5168;47.854;7.944;2022-12-07T07:01:24;3.10;;;2.90;;
10246;SDS011;5168;47.854;7.944;2022-12-07T07:03:50;3.20;;;2.90;;
10246;SDS011;5168;47.854;7.944;2022-12-07T07:06:17;2.50;;;2.30;;
10246;SDS011;5168;47.854;7.944;2022-12-07T07:08:43;2.70;;;2.50;;
10246;SDS011;5168;47.854;7.944;2022-12-07T07:11:09;2.73;;;2.53;;
10246;SDS011;5168;47.854;7.944;2022-12-07T07:13:35;2.90;;;2.70;;
10246;SDS011;5168;47.854;7.944;2022-12-07T07:16:01;2.50;;;2.30;;
10246;SDS011;5168;47.854;7.944;2022-12-07T07:18:27;2.93;;;2.73;;
10246;SDS011;5168;47.854;7.944;2022-12-07T07:20:53;3.13;;;2.60;;
10246;SDS011;5168;47.854;7.944;2022-12-07T07:23:19;2.60;;;2.40;;
10246;SDS011;5168;47.854;7.944;2022-12-07T07:25:46;2.90;;;2.60;;
10246;SDS011;5168;47.854;7.944;2022-12-07T07:28:12;2.97;;;2.63;;
10246;SDS011;5168;47.854;7.944;2022-12-07T07:30:38;2.57;;;2.37;;
10246;SDS011;5168;47.854;7.944;2022-12-07T07:33:04;2.90;;;2.57;;
10246;SDS011;5168;47.854;7.944;2022-12-07T07:35:31;2.60;;;2.40;;
10246;SDS011;5168;47.854;7.944;2022-12-07T07:37:58;3.00;;;2.73;;
10246;SDS011;5168;47.854;7.944;2022-12-07T07:40:24;3.17;;;2.97;;
10246;SDS011;5168;47.854;7.944;2022-12-07T07:42:50;3.00;;;2.77;;
10246;SDS011;5168;47.854;7.944;2022-12-07T07:45:17;3.43;;;2.90;;
10246;SDS011;5168;47.854;7.944;2022-12-07T07:47:43;2.80;;;2.60;;
10246;SDS011;5168;47.854;7.944;2022-12-07T07:50:09;2.80;;;2.60;;
10246;SDS011;5168;47.854;7.944;2022-12-07T07:52:35;2.60;;;2.40;;
10246;SDS011;5168;47.854;7.944;2022-12-07T07:55:01;2.50;;;2.30;;
10246;SDS011;5168;47.854;7.944;2022-12-07T07:57:27;2.70;;;2.50;;
10246;SDS011;5168;47.854;7.944;2022-12-07T07:59:53;2.57;;;2.37;;
10246;SDS011;5168;47.854;7.944;2022-12-07T08:02:19;2.93;;;2.60;;
10246;SDS011;5168;47.854;7.944;2022-12-07T08:04:46;2.53;;;2.33;;
10246;SDS011;5168;47.854;7.944;2022-12-07T08:07:12;2.77;;;2.57;;
10246;SDS011;5168;47.854;7.944;2022-12-07T08:09:38;2.53;;;2.33;;
10246;SDS011;5168;47.854;7.944;2022-12-07T08:12:04;2.23;;;2.13;;
10246;SDS011;5168;47.854;7.944;2022-12-07T08:14:30;2.50;;;2.30;;
10246;SDS011;5168;47.854;7.944;2022-12-07T08:16:56;2.20;;;2.10;;
10246;SDS011;5168;47.854;7.944;2022-12-07T08:19:22;2.10;;;1.90;;
10246;SDS011;5168;47.854;7.944;2022-12-07T08:21:48;2.10;;;2.00;;
10246;SDS011;5168;47.854;7.944;2022-12-07T08:24:13;2.40;;;2.10;;
10246;SDS011;5168;47.854;7.944;2022-12-07T08:26:40;2.30;;;2.20;;
10246;SDS011;5168;47.854;7.944;2022-12-07T08:29:05;2.13;;;2.03;;
10246;SDS011;5168;47.854;7.944;2022-12-07T08:31:31;2.50;;;2.30;;
10246;SDS011;5168;47.854;7.944;2022-12-07T08:33:57;2.53;;;2.40;;
10246;SDS011;5168;47.854;7.944;2022-12-07T08:36:23;2.20;;;2.10;;
10246;SDS011;5168;47.854;7.944;2022-12-07T08:38:49;2.20;;;2.10;;
10246;SDS011;5168;47.854;7.944;2022-12-07T08:41:15;2.50;;;2.30;;
10246;SDS011;5168;47.854;7.944;2022-12-07T08:43:41;2.43;;;2.23;;
10246;SDS011;5168;47.854;7.944;2022-12-07T08:48:44;2.43;;;2.27;;
10246;SDS011;5168;47.854;7.944;2022-12-07T08:51:14;2.60;;;2.40;;
10246;SDS011;5168;47.854;7.944;2022-12-07T08:53:40;2.40;;;2.20;;
10246;SDS011;5168;47.854;7.944;2022-12-07T08:56:07;2.20;;;2.10;;
10246;SDS011;5168;47.854;7.944;2022-12-07T08:58:33;2.77;;;2.30;;
10246;SDS011;5168;47.854;7.944;2022-12-07T09:01:00;2.37;;;2.17;;
10246;SDS011;5168;47.854;7.944;2022-12-07T09:03:26;2.40;;;2.20;;
10246;SDS011;5168;47.854;7.944;2022-12-07T09:05:52;2.03;;;1.93;;
10246;SDS011;5168;47.854;7.944;2022-12-07T09:08:19;4.20;;;2.17;;
10246;SDS011;5168;47.854;7.944;2022-12-07T09:10:45;2.03;;;1.93;;
10246;SDS011;5168;47.854;7.944;2022-12-07T09:13:11;2.20;;;2.10;;
10246;SDS011;5168;47.854;7.944;2022-12-07T09:15:37;2.30;;;2.10;;
10246;SDS011;5168;47.854;7.944;2022-12-07T09:18:02;1.93;;;1.83;;
10246;SDS011;5168;47.854;7.944;2022-12-07T09:20:28;2.00;;;1.90;;
10246;SDS011;5168;47.854;7.944;2022-12-07T09:22:53;1.93;;;1.83;;
10246;SDS011;5168;47.854;7.944;2022-12-07T09:25:19;2.10;;;1.90;;
10246;SDS011;5168;47.854;7.944;2022-12-07T09:27:44;2.03;;;1.93;;
10246;SDS011;5168;47.854;7.944;2022-12-07T09:30:10;2.43;;;2.23;;
10246;SDS011;5168;47.854;7.944;2022-12-07T09:32:36;2.33;;;2.13;;
10246;SDS011;5168;47.854;7.944;2022-12-07T09:35:01;1.97;;;1.87;;
10246;SDS011;5168;47.854;7.944;2022-12-07T09:37:27;2.07;;;1.97;;
10246;SDS011;5168;47.854;7.944;2022-12-07T09:39:53;1.90;;;1.80;;
10246;SDS011;5168;47.854;7.944;2022-12-07T09:42:38;2.20;;;2.00;;
10246;SDS011;5168;47.854;7.944;2022-12-07T09:45:11;2.10;;;2.00;;
10246;SDS011;5168;47.854;7.944;2022-12-07T09:47:44;2.10;;;2.00;;
10246;SDS011;5168;47.854;7.944;2022-12-07T09:50:15;1.90;;;1.80;;
10246;SDS011;5168;47.854;7.944;2022-12-07T09:52:44;2.00;;;1.90;;
10246;SDS011;5168;47.854;7.944;2022-12-07T09:55:15;2.00;;;1.90;;
10246;SDS011;5168;47.854;7.944;2022-12-07T09:57:45;1.80;;;1.70;;
10246;SDS011;5168;47.854;7.944;2022-12-07T10:00:21;1.70;;;1.60;;
10246;SDS011;5168;47.854;7.944;2022-12-07T10:02:53;1.70;;;1.60;;
10246;SDS011;5168;47.854;7.944;2022-12-07T10:05:26;1.50;;;1.40;;
10246;SDS011;5168;47.854;7.944;2022-12-07T10:07:59;1.80;;;1.70;;
10246;SDS011;5168;47.854;7.944;2022-12-07T10:10:34;1.70;;;1.60;;
10246;SDS011;5168;47.854;7.944;2022-12-07T10:13:13;1.50;;;1.40;;
10246;SDS011;5168;47.854;7.944;2022-12-07T10:15:51;1.50;;;1.40;;
10246;SDS011;5168;47.854;7.944;2022-12-07T10:21:15;1.70;;;1.60;;
10246;SDS011;5168;47.854;7.944;2022-12-07T10:26:40;1.37;;;1.27;;
10246;SDS011;5168;47.854;7.944;2022-12-07T10:29:29;1.47;;;1.37;;
10246;SDS011;5168;47.854;7.944;2022-12-07T10:32:01;1.40;;;1.30;;
10246;SDS011;5168;47.854;7.944;2022-12-07T10:34:35;1.50;;;1.40;;
10246;SDS011;5168;47.854;7.944;2022-12-07T10:40:18;1.40;;;1.30;;
10246;SDS011;5168;47.854;7.944;2022-12-07T10:42:27;2.33;;;1.30;;
10246;SDS011;5168;47.854;7.944;2022-12-07T10:45:14;1.30;;;1.20;;
10246;SDS011;5168;47.854;7.944;2022-12-07T10:47:51;1.30;;;1.20;;
10246;SDS011;5168;47.854;7.944;2022-12-07T11:03:54;1.47;;;1.20;;
10246;SDS011;5168;47.854;7.944;2022-12-07T11:06:42;1.40;;;1.30;;
10246;SDS011;5168;47.854;7.944;2022-12-07T11:22:50;1.13;;;1.10;;
10246;SDS011;5168;47.854;7.944;2022-12-07T11:31:07;1.40;;;1.30;;
10246;SDS011;5168;47.854;7.944;2022-12-07T11:36:31;1.40;;;1.30;;
10246;SDS011;5168;47.854;7.944;2022-12-07T11:41:45;1.30;;;1.20;;
10246;SDS011;5168;47.854;7.944;2022-12-07T11:46:58;1.10;;;1.10;;
10246;SDS011;5168;47.854;7.944;2022-12-07T11:52:13;1.20;;;1.10;;
10246;SDS011;5168;47.854;7.944;2022-12-07T11:54:50;1.40;;;1.30;;
10246;SDS011;5168;47.854;7.944;2022-12-07T11:57:20;1.47;;;1.37;;
10246;SDS011;5168;47.854;7.944;2022-12-07T11:59:54;1.63;;;1.53;;
10246;SDS011;5168;47.854;7.944;2022-12-07T12:02:32;1.70;;;1.60;;
10246;SDS011;5168;47.854;7.944;2022-12-07T12:05:15;1.60;;;1.50;;
10246;SDS011;5168;47.854;7.944;2022-12-07T12:07:43;1.97;;;1.50;;
10246;SDS011;5168;47.854;7.944;2022-12-07T12:10:19;1.30;;;1.20;;
10246;SDS011;5168;47.854;7.944;2022-12-07T12:12:57;1.40;;;1.30;;
10246;SDS011;5168;47.854;7.944;2022-12-07T12:18:32;1.30;;;1.20;;
10246;SDS011;5168;47.854;7.944;2022-12-07T12:21:18;1.30;;;1.20;;
10246;SDS011;5168;47.854;7.944;2022-12-07T12:23:58;1.10;;;1.10;;
10246;SDS011;5168;47.854;7.944;2022-12-07T12:26:30;1.10;;;1.10;;
10246;SDS011;5168;47.854;7.944;2022-12-07T12:28:59;1.30;;;1.20;;
10246;SDS011;5168;47.854;7.944;2022-12-07T12:33:56;1.37;;;1.27;;
10246;SDS011;5168;47.854;7.944;2022-12-07T12:44:03;2.40;;;1.60;;
10246;SDS011;5168;47.854;7.944;2022-12-07T12:51:50;1.83;;;1.60;;
10246;SDS011;5168;47.854;7.944;2022-12-07T12:54:21;1.80;;;1.70;;
10246;SDS011;5168;47.854;7.944;2022-12-07T12:57:10;1.70;;;1.60;;
10246;SDS011;5168;47.854;7.944;2022-12-07T12:59:59;1.83;;;1.73;;
10246;SDS011;5168;47.854;7.944;2022-12-07T13:02:28;1.70;;;1.60;;
10246;SDS011;5168;47.854;7.944;2022-12-07T13:15:44;2.00;;;1.90;;
10246;SDS011;5168;47.854;7.944;2022-12-07T13:23:23;1.90;;;1.70;;
10246;SDS011;5168;47.854;7.944;2022-12-07T13:33:39;2.30;;;2.13;;
10246;SDS011;5168;47.854;7.944;2022-12-07T13:36:11;2.93;;;2.00;;
10246;SDS011;5168;47.854;7.944;2022-12-07T13:38:49;2.23;;;2.10;;
10246;SDS011;5168;47.854;7.944;2022-12-07T13:41:18;1.83;;;1.73;;
10246;SDS011;5168;47.854;7.944;2022-12-07T13:43:53;2.10;;;1.90;;
10246;SDS011;5168;47.854;7.944;2022-12-07T13:46:26;2.33;;;2.23;;
10246;SDS011;5168;47.854;7.944;2022-12-07T13:49:19;2.20;;;2.10;;
10246;SDS011;5168;47.854;7.944;2022-12-07T13:51:53;2.10;;;2.00;;
10246;SDS011;5168;47.854;7.944;2022-12-07T13:54:20;2.10;;;2.00;;
10246;SDS011;5168;47.854;7.944;2022-12-07T13:56:50;2.50;;;2.30;;
10246;SDS011;5168;47.854;7.944;2022-12-07T13:59:18;2.23;;;2.10;;
10246;SDS011;5168;47.854;7.944;2022-12-07T14:01:46;2.03;;;1.93;;
10246;SDS011;5168;47.854;7.944;2022-12-07T14:04:17;2.23;;;2.03;;
10246;SDS011;5168;47.854;7.944;2022-12-07T14:10:23;2.27;;;2.07;;
10246;SDS011;5168;47.854;7.944;2022-12-07T14:12:55;2.00;;;1.90;;
10246;SDS011;5168;47.854;7.944;2022-12-07T14:15:23;2.00;;;1.90;;
10246;SDS011;5168;47.854;7.944;2022-12-07T14:17:53;1.70;;;1.60;;
10246;SDS011;5168;47.854;7.944;2022-12-07T14:20:30;3.73;;;2.00;;
10246;SDS011;5168;47.854;7.944;2022-12-07T14:23:03;1.70;;;1.60;;
10246;SDS011;5168;47.854;7.944;2022-12-07T14:25:45;1.87;;;1.77;;
10246;SDS011;5168;47.854;7.944;2022-12-07T14:28:28;2.10;;;2.00;;
10246;SDS011;5168;47.854;7.944;2022-12-07T14:30:56;2.00;;;1.90;;
10246;SDS011;5168;47.854;7.944;2022-12-07T14:33:22;2.30;;;2.10;;
10246;SDS011;5168;47.854;7.944;2022-12-07T14:35:49;3.40;;;3.10;;
10246;SDS011;5168;47.854;7.944;2022-12-07T14:38:19;4.07;;;3.03;;
10246;SDS011;5168;47.854;7.944;2022-12-07T14:40:45;7.73;;;4.70;;
10246;SDS011;5168;47.854;7.944;2022-12-07T14:43:12;7.67;;;4.33;;
10246;SDS011;5168;47.854;7.944;2022-12-07T14:45:39;9.73;;;4.70;;
10246;SDS011;5168;47.854;7.944;2022-12-07T14:48:05;16.97;;;7.73;;
10246;SDS011;5168;47.854;7.944;2022-12-07T14:50:31;15.17;;;7.27;;
10246;SDS011;5168;47.854;7.944;2022-12-07T14:53:03;10.17;;;5.00;;
10246;SDS011;5168;47.854;7.944;2022-12-07T14:55:39;5.43;;;3.40;;
10246;SDS011;5168;47.854;7.944;2022-12-07T14:58:05;3.23;;;2.40;;
10246;SDS011;5168;47.854;7.944;2022-12-07T15:00:31;3.57;;;2.70;;
10246;SDS011;5168;47.854;7.944;2022-12-07T15:02:58;2.80;;;2.60;;
10246;SDS011;5168;47.854;7.944;2022-12-07T15:05:24;2.80;;;2.30;;
10246;SDS011;5168;47.854;7.944;2022-12-07T15:07:49;2.60;;;2.40;;
10246;SDS011;5168;47.854;7.944;2022-12-07T15:10:17;2.23;;;2.07;;
10246;SDS011;5168;47.854;7.944;2022-12-07T15:12:47;2.60;;;2.33;;
10246;SDS011;5168;47.854;7.944;2022-12-07T15:15:13;2.90;;;2.70;;
10246;SDS011;5168;47.854;7.944;2022-12-07T15:17:39;2.73;;;2.53;;
10246;SDS011;5168;47.854;7.944;2022-12-07T15:20:07;2.60;;;2.40;;
10246;SDS011;5168;47.854;7.944;2022-12-07T15:22:36;2.60;;;2.40;;
10246;SDS011;5168;47.854;7.944;2022-12-07T15:25:02;2.87;;;2.67;;
10246;SDS011;5168;47.854;7.944;2022-12-07T15:27:29;2.13;;;2.03;;
10246;SDS011;5168;47.854;7.944;2022-12-07T15:29:55;2.13;;;2.03;;
10246;SDS011;5168;47.854;7.944;2022-12-07T15:32:21;2.97;;;2.30;;
10246;SDS011;5168;47.854;7.944;2022-12-07T15:34:47;3.20;;;2.37;;
10246;SDS011;5168;47.854;7.944;2022-12-07T15:37:15;3.13;;;2.57;;
10246;SDS011;5168;47.854;7.944;2022-12-07T15:39:41;3.40;;;3.10;;
10246;SDS011;5168;47.854;7.944;2022-12-07T15:42:07;4.50;;;3.60;;
10246;SDS011;5168;47.854;7.944;2022-12-07T15:44:33;5.10;;;4.10;;
10246;SDS011;5168;47.854;7.944;2022-12-07T15:47:17;6.70;;;4.30;;
10246;SDS011;5168;47.854;7.944;2022-12-07T15:49:43;6.77;;;4.70;;
10246;SDS011;5168;47.854;7.944;2022-12-07T15:52:09;4.47;;;3.90;;
10246;SDS011;5168;47.854;7.944;2022-12-07T15:54:34;4.03;;;3.53;;
10246;SDS011;5168;47.854;7.944;2022-12-07T15:57:00;2.97;;;2.70;;
10246;SDS011;5168;47.854;7.944;2022-12-07T15:59:27;3.83;;;2.90;;
10246;SDS011;5168;47.854;7.944;2022-12-07T16:01:53;3.13;;;2.60;;
10246;SDS011;5168;47.854;7.944;2022-12-07T16:04:19;2.97;;;2.67;;
10246;SDS011;5168;47.854;7.944;2022-12-07T16:06:45;3.00;;;2.70;;
10246;SDS011;5168;47.854;7.944;2022-12-07T16:09:11;2.90;;;2.70;;
10246;SDS011;5168;47.854;7.944;2022-12-07T16:11:37;3.37;;;3.07;;
10246;SDS011;5168;47.854;7.944;2022-12-07T16:14:03;9.73;;;5.90;;
10246;SDS011;5168;47.854;7.944;2022-12-07T16:16:29;9.60;;;5.40;;
10246;SDS011;5168;47.854;7.944;2022-12-07T16:18:55;9.83;;;5.57;;
10246;SDS011;5168;47.854;7.944;2022-12-07T16:21:21;10.77;;;6.43;;
10246;SDS011;5168;47.854;7.944;2022-12-07T16:23:47;8.50;;;5.43;;
10246;SDS011;5168;47.854;7.944;2022-12-07T16:26:14;5.83;;;3.80;;
10246;SDS011;5168;47.854;7.944;2022-12-07T16:28:41;3.53;;;2.70;;
10246;SDS011;5168;47.854;7.944;2022-12-07T16:31:08;3.20;;;2.90;;
10246;SDS011;5168;47.854;7.944;2022-12-07T16:33:35;3.23;;;2.90;;
10246;SDS011;5168;47.854;7.944;2022-12-07T16:36:03;3.33;;;3.03;;
10246;SDS011;5168;47.854;7.944;2022-12-07T16:38:29;3.47;;;2.67;;
10246;SDS011;5168;47.854;7.944;2022-12-07T16:40:55;3.03;;;2.80;;
10246;SDS011;5168;47.854;7.944;2022-12-07T16:43:20;3.00;;;2.80;;
10246;SDS011;5168;47.854;7.944;2022-12-07T16:45:47;2.80;;;2.60;;
10246;SDS011;5168;47.854;7.944;2022-12-07T16:48:13;2.60;;;2.40;;
10246;SDS011;5168;47.854;7.944;2022-12-07T16:50:40;2.40;;;2.20;;
10246;SDS011;5168;47.854;7.944;2022-12-07T16:53:07;2.83;;;2.63;;
10246;SDS011;5168;47.854;7.944;2022-12-07T16:55:40;3.10;;;2.80;;
10246;SDS011;5168;47.854;7.944;2022-12-07T16:58:08;2.70;;;2.50;;
10246;SDS011;5168;47.854;7.944;2022-12-07T17:00:35;2.87;;;2.67;;
10246;SDS011;5168;47.854;7.944;2022-12-07T17:03:02;2.90;;;2.67;;
10246;SDS011;5168;47.854;7.944;2022-12-07T17:05:28;2.70;;;2.50;;
10246;SDS011;5168;47.854;7.944;2022-12-07T17:07:54;4.13;;;2.67;;
10246;SDS011;5168;47.854;7.944;2022-12-07T17:10:21;2.93;;;2.50;;
10246;SDS011;5168;47.854;7.944;2022-12-07T17:12:47;3.17;;;2.63;;
10246;SDS011;5168;47.854;7.944;2022-12-07T17:15:13;2.87;;;2.57;;
10246;SDS011;5168;47.854;7.944;2022-12-07T17:17:43;3.43;;;2.80;;
10246;SDS011;5168;47.854;7.944;2022-12-07T17:20:12;3.53;;;3.00;;
10246;SDS011;5168;47.854;7.944;2022-12-07T17:22:39;3.90;;;2.80;;
10246;SDS011;5168;47.854;7.944;2022-12-07T17:25:05;3.50;;;2.77;;
10246;SDS011;5168;47.854;7.944;2022-12-07T17:27:31;3.40;;;2.90;;